Washingtons Birthplace, Virginia
Current Conditions -  °F | °C
As of 4:35 PM on Thursday 18 Dec 2014 (Local Time) from KXSA Reporting Station
Clear Clear  
Wind Chill: 40°   Ceiling: Unl
Heat Index: 40°   Visibility: 10mi
Dew Point: 20°   Wind: 0mph
Humidity: 45%   Direction: NA
Pressure: 30.11"   Gusts: NA
Location:  38.184°N, 76.9988°W
Report Text: KXSA 182135Z AUTO 00000KT 10SM CLR 05/M06 A3011 RMK AO2 T00461064
Loading
Personal Weather Stations






























Interactive Weather Map New forecast layout! Learn more

10-Day Weather Forecast

Advertisements
Track Severe Weather on mobile